Time;durP1;ratioP1;P1;durP2;ratioP2;P2;SDS_P1;SDS_P2;PMS_P1;PMS_P2;Temp;Humidity;BMP_temperature;BMP_pressure;BME280_temperature;BME280_humidity;BME280_pressure;Samples;Min_cycle;Max_cycle;Signal;HPM_P1;HPM_P2
2022/01/18 00:01:48;;;;;;;53.65;8.55;;;;;;;;;;4991102;28;20030;-67
2022/01/18 00:04:13;;;;;;;66.80;9.43;;;;;;;;;;4990275;28;20025;-68
2022/01/18 00:06:41;;;;;;;50.05;8.93;;;;;;;;;;4990956;28;20026;-67
2022/01/18 00:09:06;;;;;;;45.17;9.35;;;;;;;;;;4990772;28;20026;-67
2022/01/18 00:11:40;;;;;;;37.25;8.75;;;;;;;;;;4991316;28;20076;-67
2022/01/18 00:14:13;;;;;;;45.95;8.55;;;;;;;;;;4991133;28;20026;-67
2022/01/18 00:16:50;;;;;;;50.58;8.65;;;;;;;;;;4989018;28;20038;-67
2022/01/18 00:19:15;;;;;;;64.65;9.68;;;;;;;;;;4990790;28;20109;-67
2022/01/18 00:22:05;;;;;;;58.20;8.60;;;;;;;;;;4991317;28;20109;-67
2022/01/18 00:24:30;;;;;;;54.85;8.63;;;;;;;;;;4990593;28;20026;-66
2022/01/18 00:26:56;;;;;;;53.10;7.50;;;;;;;;;;4990769;28;20018;-67
2022/01/18 00:29:24;;;;;;;58.75;8.05;;;;;;;;;;4989163;28;20091;-68
2022/01/18 00:34:56;;;;;;;51.97;7.63;;;;;;;;;;4949313;29;20107;-67
2022/01/18 00:39:49;;;;;;;50.55;7.50;;;;;;;;;;4971398;28;20057;-67
2022/01/18 00:42:14;;;;;;;42.87;7.97;;;;;;;;;;4995191;28;20467;-67
2022/01/18 00:44:39;;;;;;;36.55;6.95;;;;;;;;;;4994204;28;20269;-66
2022/01/18 00:47:05;;;;;;;48.05;7.95;;;;;;;;;;4994588;28;20122;-67
2022/01/18 00:49:31;;;;;;;59.80;9.70;;;;;;;;;;4994537;28;20031;-66
2022/01/18 00:51:59;;;;;;;44.78;8.38;;;;;;;;;;4991023;28;20023;-66
2022/01/18 00:54:32;;;;;;;46.97;9.52;;;;;;;;;;4993834;28;20030;-67
2022/01/18 00:56:58;;;;;;;60.65;7.60;;;;;;;;;;4994251;28;20073;-67
2022/01/18 00:59:23;;;;;;;54.80;8.70;;;;;;;;;;4993986;28;20026;-66
2022/01/18 01:01:48;;;;;;;43.00;8.70;;;;;;;;;;4994274;28;20022;-66
2022/01/18 01:04:14;;;;;;;42.60;7.00;;;;;;;;;;4993015;28;20050;-66
2022/01/18 01:06:40;;;;;;;41.65;7.35;;;;;;;;;;4996461;28;20018;-66
2022/01/18 01:09:06;;;;;;;43.47;7.43;;;;;;;;;;4993484;28;20018;-66
2022/01/18 01:11:36;;;;;;;48.05;8.48;;;;;;;;;;4993062;28;20038;-66
2022/01/18 01:14:02;;;;;;;45.17;8.75;;;;;;;;;;4988010;28;20459;-66
2022/01/18 01:19:49;;;;;;;49.90;10.05;;;;;;;;;;4993486;28;20044;-66
2022/01/18 01:43:23;;;;;;;38.63;8.07;;;;;;;;;;4981431;28;20117;-66
2022/01/18 01:45:50;;;;;;;57.50;7.82;;;;;;;;;;4993275;28;20026;-66
2022/01/18 01:48:17;;;;;;;50.78;7.55;;;;;;;;;;4993435;28;20109;-67
2022/01/18 01:50:49;;;;;;;58.60;8.63;;;;;;;;;;4992679;28;20458;-67
2022/01/18 01:53:16;;;;;;;44.70;7.85;;;;;;;;;;4993541;28;20031;-67
2022/01/18 01:55:41;;;;;;;56.15;7.97;;;;;;;;;;4992987;28;20029;-66
2022/01/18 01:58:07;;;;;;;48.42;7.65;;;;;;;;;;4993296;28;20378;-67
2022/01/18 02:00:33;;;;;;;43.45;9.27;;;;;;;;;;4993821;28;20018;-66
2022/01/18 02:02:58;;;;;;;53.50;8.02;;;;;;;;;;4992934;28;20027;-66
2022/01/18 02:05:23;;;;;;;38.58;8.20;;;;;;;;;;4993611;28;20100;-66
2022/01/18 02:07:49;;;;;;;35.38;8.45;;;;;;;;;;4992444;28;20096;-66
2022/01/18 02:10:14;;;;;;;51.33;7.13;;;;;;;;;;4988859;28;20088;-66
2022/01/18 02:12:39;;;;;;;32.95;7.18;;;;;;;;;;5001030;28;20038;-66
2022/01/18 02:15:13;;;;;;;37.25;7.20;;;;;;;;;;4992519;28;20048;-66
2022/01/18 02:23:19;;;;;;;38.20;7.85;;;;;;;;;;4981784;28;20038;-66
2022/01/18 02:25:44;;;;;;;49.50;8.10;;;;;;;;;;4991970;28;20022;-66
2022/01/18 02:28:10;;;;;;;48.93;7.43;;;;;;;;;;4992685;28;20084;-66
2022/01/18 02:30:35;;;;;;;54.15;8.43;;;;;;;;;;4993007;28;20289;-66
2022/01/18 02:33:00;;;;;;;46.08;7.88;;;;;;;;;;4992145;28;20036;-66
2022/01/18 02:35:26;;;;;;;50.33;7.23;;;;;;;;;;4992789;28;20049;-66
2022/01/18 02:37:52;;;;;;;47.92;7.90;;;;;;;;;;4992200;28;20273;-66
2022/01/18 02:40:17;;;;;;;42.38;7.35;;;;;;;;;;4991297;28;20536;-66
2022/01/18 02:42:54;;;;;;;53.97;10.13;;;;;;;;;;4992338;28;20101;-66
2022/01/18 02:45:19;;;;;;;51.00;7.90;;;;;;;;;;4991652;28;20033;-66
2022/01/18 02:47:46;;;;;;;56.53;8.07;;;;;;;;;;4991972;28;20042;-66
2022/01/18 02:50:11;;;;;;;53.22;7.78;;;;;;;;;;4992187;28;20798;-66
2022/01/18 02:52:36;;;;;;;38.85;6.47;;;;;;;;;;4992355;28;20022;-66
2022/01/18 02:55:01;;;;;;;46.35;9.05;;;;;;;;;;4992014;28;20046;-66
2022/01/18 02:57:27;;;;;;;39.63;9.23;;;;;;;;;;4992188;28;20112;-66
2022/01/18 03:00:13;;;;;;;44.40;7.88;;;;;;;;;;4992110;28;20099;-66
2022/01/18 03:05:21;;;;;;;46.38;8.75;;;;;;;;;;4990999;28;20041;-66
2022/01/18 03:07:46;;;;;;;36.72;7.47;;;;;;;;;;4991375;28;20026;-67
2022/01/18 03:10:12;;;;;;;38.45;6.97;;;;;;;;;;4991985;28;20041;-66
2022/01/18 03:12:37;;;;;;;36.15;7.45;;;;;;;;;;4991755;28;20018;-66
2022/01/18 03:15:03;;;;;;;40.03;7.53;;;;;;;;;;4991525;28;20040;-66
2022/01/18 03:17:28;;;;;;;52.65;8.65;;;;;;;;;;4989668;28;20053;-66
2022/01/18 03:19:53;;;;;;;33.78;8.07;;;;;;;;;;4996366;28;20029;-66
2022/01/18 03:22:19;;;;;;;45.40;7.57;;;;;;;;;;4991589;28;20029;-66
2022/01/18 03:30:26;;;;;;;35.40;7.53;;;;;;;;;;4991295;28;20076;-66
2022/01/18 03:32:51;;;;;;;31.95;5.80;;;;;;;;;;4991468;28;20026;-66
2022/01/18 03:35:16;;;;;;;29.53;5.10;;;;;;;;;;4991629;28;20124;-66
2022/01/18 03:37:42;;;;;;;26.20;5.00;;;;;;;;;;4990600;28;20273;-66
2022/01/18 03:40:08;;;;;;;41.38;5.47;;;;;;;;;;4991157;28;20347;-66
2022/01/18 03:42:39;;;;;;;46.47;5.90;;;;;;;;;;4990803;28;20479;-66
2022/01/18 03:45:05;;;;;;;34.55;5.00;;;;;;;;;;4990946;28;20022;-66
2022/01/18 03:47:31;;;;;;;41.35;5.50;;;;;;;;;;4990043;28;20081;-66
2022/01/18 03:49:56;;;;;;;35.22;4.88;;;;;;;;;;4989290;28;20018;-66
2022/01/18 03:52:21;;;;;;;42.58;5.75;;;;;;;;;;4991497;28;20025;-67
2022/01/18 03:54:47;;;;;;;26.05;4.35;;;;;;;;;;4983498;28;20526;-67
2022/01/18 03:57:13;;;;;;;36.85;5.65;;;;;;;;;;4983771;28;20080;-66
2022/01/18 03:59:38;;;;;;;37.70;6.97;;;;;;;;;;4984934;28;20034;-67
2022/01/18 04:02:04;;;;;;;29.50;4.07;;;;;;;;;;4991134;28;20038;-67
2022/01/18 04:04:29;;;;;;;34.25;4.60;;;;;;;;;;4990846;28;20265;-66
2022/01/18 04:06:54;;;;;;;43.15;8.15;;;;;;;;;;4984789;28;20018;-66
2022/01/18 04:09:20;;;;;;;33.73;5.10;;;;;;;;;;4989745;28;20033;-67
2022/01/18 04:11:45;;;;;;;35.13;5.72;;;;;;;;;;4991140;28;20276;-67
2022/01/18 04:14:10;;;;;;;37.85;5.70;;;;;;;;;;4982294;28;20106;-66
2022/01/18 04:16:44;;;;;;;33.67;5.83;;;;;;;;;;4988615;28;20027;-67
2022/01/18 04:27:22;;;;;;;37.55;5.70;;;;;;;;;;4987837;28;20497;-67
2022/01/18 04:29:47;;;;;;;34.60;7.20;;;;;;;;;;4987077;28;20101;-67
2022/01/18 04:32:13;;;;;;;36.23;6.20;;;;;;;;;;4988497;28;20049;-67
2022/01/18 04:34:40;;;;;;;38.70;6.43;;;;;;;;;;4989506;28;20296;-67
2022/01/18 04:37:05;;;;;;;35.78;7.40;;;;;;;;;;4991176;28;20269;-66
2022/01/18 04:39:37;;;;;;;38.70;5.60;;;;;;;;;;4989278;28;20015;-67
2022/01/18 04:42:02;;;;;;;44.33;7.38;;;;;;;;;;4990638;28;20030;-67
2022/01/18 04:49:55;;;;;;;50.83;7.70;;;;;;;;;;4990157;28;20028;-67
2022/01/18 04:52:20;;;;;;;44.53;6.97;;;;;;;;;;4983220;28;20031;-67
2022/01/18 04:54:56;;;;;;;59.17;7.80;;;;;;;;;;4983941;28;20646;-67
2022/01/18 04:59:47;;;;;;;38.45;7.10;;;;;;;;;;4994145;28;20093;-66
2022/01/18 05:02:12;;;;;;;49.35;8.75;;;;;;;;;;4987582;28;20031;-67
2022/01/18 05:04:37;;;;;;;43.35;7.40;;;;;;;;;;4986238;28;20494;-68
2022/01/18 05:07:02;;;;;;;54.13;10.40;;;;;;;;;;4988260;28;20376;-66
2022/01/18 05:09:28;;;;;;;58.17;8.45;;;;;;;;;;4987112;28;20034;-67
2022/01/18 05:12:05;;;;;;;45.05;7.53;;;;;;;;;;4987588;28;20023;-66
2022/01/18 05:14:34;;;;;;;43.78;9.10;;;;;;;;;;4987430;28;20073;-67
2022/01/18 05:24:52;;;;;;;44.80;8.32;;;;;;;;;;4986370;28;20061;-66
2022/01/18 05:27:17;;;;;;;35.45;7.20;;;;;;;;;;4988703;28;20034;-67
2022/01/18 05:29:42;;;;;;;44.10;9.57;;;;;;;;;;4992313;28;20386;-67
2022/01/18 05:32:08;;;;;;;47.28;9.18;;;;;;;;;;4991154;28;20284;-67
2022/01/18 05:34:33;;;;;;;45.75;7.55;;;;;;;;;;4990896;28;20014;-67
2022/01/18 05:36:58;;;;;;;38.03;7.63;;;;;;;;;;4991335;28;20041;-67
2022/01/18 05:39:23;;;;;;;45.57;7.63;;;;;;;;;;4990807;28;20261;-67
2022/01/18 05:41:48;;;;;;;59.07;9.23;;;;;;;;;;4991034;28;20269;-67
2022/01/18 05:44:13;;;;;;;51.60;8.43;;;;;;;;;;4990767;28;20337;-66
2022/01/18 05:46:39;;;;;;;41.17;7.83;;;;;;;;;;4991284;28;20030;-67
2022/01/18 05:49:04;;;;;;;47.60;9.17;;;;;;;;;;4989422;28;20345;-67
2022/01/18 05:51:30;;;;;;;43.58;8.85;;;;;;;;;;4996770;28;20269;-67
2022/01/18 05:53:55;;;;;;;35.22;7.55;;;;;;;;;;4993499;28;20054;-68
2022/01/18 05:56:20;;;;;;;52.63;9.45;;;;;;;;;;4993456;28;20054;-66
2022/01/18 05:58:48;;;;;;;46.97;10.38;;;;;;;;;;4992992;28;20098;-67
2022/01/18 06:01:14;;;;;;;49.08;9.65;;;;;;;;;;4992826;28;20026;-67
2022/01/18 06:03:54;;;;;;;49.80;8.07;;;;;;;;;;4988197;28;20049;-66
2022/01/18 06:09:04;;;;;;;58.28;9.50;;;;;;;;;;4996619;28;20044;-67
2022/01/18 06:11:29;;;;;;;51.05;8.35;;;;;;;;;;4990811;28;20026;-67
2022/01/18 06:13:54;;;;;;;52.47;9.43;;;;;;;;;;4990720;28;20386;-67
2022/01/18 06:16:19;;;;;;;47.08;8.00;;;;;;;;;;4993924;28;20069;-67
2022/01/18 06:18:45;;;;;;;51.97;8.68;;;;;;;;;;5007136;28;20435;-67
2022/01/18 06:21:10;;;;;;;59.20;9.53;;;;;;;;;;4989611;28;20097;-67
2022/01/18 06:23:35;;;;;;;51.63;8.68;;;;;;;;;;4989638;28;20269;-68
2022/01/18 06:26:02;;;;;;;48.17;9.32;;;;;;;;;;4989169;28;20026;-67
2022/01/18 06:28:28;;;;;;;57.72;8.90;;;;;;;;;;4989126;28;20026;-67
2022/01/18 06:30:53;;;;;;;40.70;8.93;;;;;;;;;;4996798;28;20053;-67
2022/01/18 06:33:18;;;;;;;50.45;11.13;;;;;;;;;;4992358;28;20479;-67
2022/01/18 06:35:43;;;;;;;57.10;9.90;;;;;;;;;;4991811;28;20664;-67
2022/01/18 06:38:10;;;;;;;55.80;8.57;;;;;;;;;;4988949;28;20284;-69
2022/01/18 06:40:35;;;;;;;38.15;9.23;;;;;;;;;;4989217;28;20265;-68
2022/01/18 06:43:00;;;;;;;40.30;8.70;;;;;;;;;;4989535;28;20038;-67
2022/01/18 06:45:25;;;;;;;37.45;7.75;;;;;;;;;;4989199;28;20612;-68
2022/01/18 06:47:51;;;;;;;47.30;9.02;;;;;;;;;;4990225;28;20098;-68
2022/01/18 06:50:16;;;;;;;43.97;9.07;;;;;;;;;;4992638;28;20478;-68
2022/01/18 06:52:41;;;;;;;50.25;9.88;;;;;;;;;;4990803;28;20037;-68
2022/01/18 06:55:07;;;;;;;60.60;8.73;;;;;;;;;;4989083;28;20072;-67
2022/01/18 06:57:32;;;;;;;44.65;11.43;;;;;;;;;;4989521;28;20029;-68
2022/01/18 06:59:58;;;;;;;45.83;9.85;;;;;;;;;;4990053;28;20125;-69
2022/01/18 07:02:23;;;;;;;35.55;9.48;;;;;;;;;;4989608;28;20113;-67
2022/01/18 07:04:48;;;;;;;40.38;8.73;;;;;;;;;;4998725;28;20053;-68
2022/01/18 07:07:13;;;;;;;39.95;8.68;;;;;;;;;;4992478;28;20434;-67
2022/01/18 07:09:38;;;;;;;42.25;9.50;;;;;;;;;;4991351;28;20042;-67
2022/01/18 07:12:09;;;;;;;52.08;9.18;;;;;;;;;;4992081;28;20407;-67
2022/01/18 07:14:35;;;;;;;46.05;9.32;;;;;;;;;;4991790;28;20041;-67
2022/01/18 07:17:00;;;;;;;60.88;9.07;;;;;;;;;;4992000;28;20018;-67
2022/01/18 07:19:25;;;;;;;59.47;10.37;;;;;;;;;;4991662;28;20032;-68
2022/01/18 07:21:50;;;;;;;39.35;8.38;;;;;;;;;;4992230;28;20643;-68
2022/01/18 07:24:36;;;;;;;50.25;9.85;;;;;;;;;;4990126;28;20031;-67
2022/01/18 07:27:01;;;;;;;52.58;10.45;;;;;;;;;;4990189;28;20014;-67
2022/01/18 07:29:26;;;;;;;46.10;9.57;;;;;;;;;;4990005;28;20032;-67
2022/01/18 07:31:52;;;;;;;52.83;8.85;;;;;;;;;;4990549;28;20033;-67
2022/01/18 07:34:17;;;;;;;46.75;9.65;;;;;;;;;;4989807;28;20019;-67
2022/01/18 07:36:42;;;;;;;49.87;9.43;;;;;;;;;;4988640;28;20096;-67
2022/01/18 07:39:07;;;;;;;40.92;8.75;;;;;;;;;;4990955;28;20300;-67
2022/01/18 07:41:33;;;;;;;60.47;10.88;;;;;;;;;;4989924;28;20106;-67
2022/01/18 07:43:58;;;;;;;61.67;10.07;;;;;;;;;;5008242;28;20036;-67
2022/01/18 07:46:23;;;;;;;40.92;10.07;;;;;;;;;;4982996;28;20320;-67
2022/01/18 07:48:48;;;;;;;51.55;11.18;;;;;;;;;;4987093;28;20030;-67
2022/01/18 07:51:13;;;;;;;55.95;13.93;;;;;;;;;;4990200;28;20026;-67
2022/01/18 07:53:39;;;;;;;54.60;11.15;;;;;;;;;;4989962;28;20030;-67
2022/01/18 07:56:04;;;;;;;59.40;12.07;;;;;;;;;;4986248;28;20777;-67
2022/01/18 07:58:29;;;;;;;45.65;10.68;;;;;;;;;;4987527;28;20471;-67
2022/01/18 08:00:55;;;;;;;38.63;10.68;;;;;;;;;;4989712;28;20035;-67
2022/01/18 08:03:20;;;;;;;42.90;9.80;;;;;;;;;;4990975;28;20023;-67
2022/01/18 08:05:47;;;;;;;41.42;9.60;;;;;;;;;;4990974;28;20467;-67
2022/01/18 08:08:13;;;;;;;43.63;10.02;;;;;;;;;;4990928;28;20030;-67
2022/01/18 08:10:39;;;;;;;42.72;10.05;;;;;;;;;;4990341;28;20395;-67
2022/01/18 08:13:05;;;;;;;47.28;11.35;;;;;;;;;;4991019;28;20026;-67
2022/01/18 08:15:37;;;;;;;49.85;12.57;;;;;;;;;;4990411;28;20018;-67
2022/01/18 08:18:04;;;;;;;50.15;9.70;;;;;;;;;;4990739;28;20030;-67
2022/01/18 08:20:29;;;;;;;56.15;13.32;;;;;;;;;;4990954;28;20022;-67
2022/01/18 08:22:54;;;;;;;53.28;10.50;;;;;;;;;;4989746;28;20022;-67
2022/01/18 08:25:19;;;;;;;64.30;12.77;;;;;;;;;;4987349;28;20018;-67
2022/01/18 08:27:45;;;;;;;61.45;12.15;;;;;;;;;;4984627;28;20352;-67
2022/01/18 08:30:11;;;;;;;79.18;12.98;;;;;;;;;;4989826;28;20040;-67
2022/01/18 08:32:37;;;;;;;49.65;11.32;;;;;;;;;;4991538;28;20022;-66
2022/01/18 08:35:02;;;;;;;54.95;12.85;;;;;;;;;;4990189;28;20037;-67
2022/01/18 08:37:28;;;;;;;56.53;12.25;;;;;;;;;;4991067;28;20057;-67
2022/01/18 08:39:53;;;;;;;65.90;12.13;;;;;;;;;;4990157;28;20374;-67
2022/01/18 08:42:18;;;;;;;63.60;13.23;;;;;;;;;;4989575;28;20494;-67
2022/01/18 08:44:43;;;;;;;55.25;11.32;;;;;;;;;;4990386;28;20349;-67
2022/01/18 08:47:16;;;;;;;66.55;12.30;;;;;;;;;;4986490;28;20027;-67
2022/01/18 08:49:41;;;;;;;55.80;12.60;;;;;;;;;;4990469;28;20022;-67
2022/01/18 08:52:07;;;;;;;62.88;12.48;;;;;;;;;;4990722;28;20072;-67
2022/01/18 08:54:32;;;;;;;64.63;12.85;;;;;;;;;;4988265;28;20014;-67
2022/01/18 08:56:57;;;;;;;43.80;11.25;;;;;;;;;;4990136;28;20026;-67
2022/01/18 08:59:23;;;;;;;53.05;12.05;;;;;;;;;;4990239;28;20018;-67
2022/01/18 09:01:48;;;;;;;51.53;12.40;;;;;;;;;;4991196;28;20021;-67
2022/01/18 09:04:13;;;;;;;57.13;12.75;;;;;;;;;;4994770;28;20030;-67
2022/01/18 09:06:39;;;;;;;57.87;13.70;;;;;;;;;;4994599;28;20054;-67
2022/01/18 09:09:05;;;;;;;61.42;13.68;;;;;;;;;;4993919;28;20289;-67
2022/01/18 09:11:31;;;;;;;53.78;12.75;;;;;;;;;;4981133;28;20056;-67
2022/01/18 09:13:56;;;;;;;36.70;11.65;;;;;;;;;;4994813;28;20026;-67
2022/01/18 09:16:22;;;;;;;66.03;14.30;;;;;;;;;;4993714;28;20015;-67
2022/01/18 09:18:47;;;;;;;53.38;14.45;;;;;;;;;;4994165;28;20387;-67
2022/01/18 09:21:13;;;;;;;50.80;11.68;;;;;;;;;;4994362;28;20034;-67
2022/01/18 09:23:39;;;;;;;58.50;14.07;;;;;;;;;;4994360;28;20125;-67
2022/01/18 09:26:05;;;;;;;50.13;11.48;;;;;;;;;;4993024;28;20069;-67
2022/01/18 09:28:30;;;;;;;45.10;11.45;;;;;;;;;;4993474;28;20054;-67
2022/01/18 09:30:55;;;;;;;47.38;10.35;;;;;;;;;;4994082;28;20022;-67
2022/01/18 09:33:20;;;;;;;56.40;14.00;;;;;;;;;;4994520;28;20467;-67
2022/01/18 09:35:46;;;;;;;58.00;11.27;;;;;;;;;;4994001;28;20018;-67
2022/01/18 09:38:11;;;;;;;45.35;11.15;;;;;;;;;;4993487;28;20030;-67
2022/01/18 09:40:38;;;;;;;51.47;13.65;;;;;;;;;;4993433;28;20069;-68
2022/01/18 09:43:09;;;;;;;57.38;11.57;;;;;;;;;;4993536;28;20049;-67
2022/01/18 09:45:35;;;;;;;56.58;13.05;;;;;;;;;;4992403;28;20554;-68
2022/01/18 09:48:00;;;;;;;63.05;12.50;;;;;;;;;;4992917;28;20022;-68
2022/01/18 09:50:29;;;;;;;52.55;15.10;;;;;;;;;;4991505;28;20033;-67
2022/01/18 09:52:55;;;;;;;63.65;17.33;;;;;;;;;;4993703;28;20487;-67
2022/01/18 09:55:23;;;;;;;58.45;15.20;;;;;;;;;;4992236;28;20060;-68
2022/01/18 09:57:50;;;;;;;54.53;14.05;;;;;;;;;;4993711;28;20543;-67
2022/01/18 10:00:15;;;;;;;57.72;16.60;;;;;;;;;;4993221;28;20073;-68
2022/01/18 10:02:40;;;;;;;60.60;15.10;;;;;;;;;;4993484;28;20415;-67
2022/01/18 10:05:18;;;;;;;56.50;15.80;;;;;;;;;;4993668;28;20053;-68
2022/01/18 10:07:43;;;;;;;66.97;16.25;;;;;;;;;;4993555;28;20030;-68
2022/01/18 10:10:09;;;;;;;51.15;15.48;;;;;;;;;;4992460;28;20433;-67
2022/01/18 10:12:34;;;;;;;52.13;14.98;;;;;;;;;;4992712;28;20042;-68
2022/01/18 10:15:01;;;;;;;49.78;13.38;;;;;;;;;;4992850;28;20034;-67
2022/01/18 10:17:30;;;;;;;64.07;14.90;;;;;;;;;;4992458;28;20471;-68
2022/01/18 10:20:01;;;;;;;63.78;16.67;;;;;;;;;;4992325;28;20054;-68
2022/01/18 10:22:34;;;;;;;67.85;20.40;;;;;;;;;;4993117;28;20027;-67
2022/01/18 10:25:11;;;;;;;73.55;19.33;;;;;;;;;;4993286;28;20112;-67
2022/01/18 10:27:36;;;;;;;64.38;17.38;;;;;;;;;;4993066;28;20494;-67
2022/01/18 10:30:04;;;;;;;54.72;17.50;;;;;;;;;;4992270;28;20030;-68
2022/01/18 10:32:37;;;;;;;60.20;18.65;;;;;;;;;;4992447;28;20034;-67
2022/01/18 10:35:05;;;;;;;68.28;18.80;;;;;;;;;;4992920;28;20023;-68
2022/01/18 10:37:33;;;;;;;76.40;19.60;;;;;;;;;;4992389;28;20073;-68
2022/01/18 10:39:59;;;;;;;51.88;15.93;;;;;;;;;;4992670;28;20018;-68
2022/01/18 10:42:27;;;;;;;60.20;17.33;;;;;;;;;;4989242;28;20029;-67
2022/01/18 10:45:03;;;;;;;55.83;17.73;;;;;;;;;;4991126;28;20375;-67
2022/01/18 10:47:28;;;;;;;64.15;19.35;;;;;;;;;;4991465;28;20018;-67
2022/01/18 10:49:54;;;;;;;65.88;19.13;;;;;;;;;;4991931;28;20027;-67
2022/01/18 10:52:21;;;;;;;63.63;19.58;;;;;;;;;;4990031;28;20024;-67
2022/01/18 10:54:59;;;;;;;67.00;22.08;;;;;;;;;;4992845;28;20073;-67
2022/01/18 10:57:28;;;;;;;64.88;22.25;;;;;;;;;;4992449;28;20030;-67
2022/01/18 11:00:08;;;;;;;68.75;22.35;;;;;;;;;;4992046;28;20015;-67
2022/01/18 11:02:37;;;;;;;81.63;22.27;;;;;;;;;;4991356;28;20022;-67
2022/01/18 11:05:17;;;;;;;64.93;19.95;;;;;;;;;;4992455;28;20038;-67
2022/01/18 11:07:42;;;;;;;75.15;22.13;;;;;;;;;;4992193;28;20030;-67
2022/01/18 11:10:08;;;;;;;66.90;21.52;;;;;;;;;;4991714;28;20038;-67
2022/01/18 11:12:44;;;;;;;75.35;22.08;;;;;;;;;;4991999;28;20084;-67
2022/01/18 11:15:16;;;;;;;71.75;20.60;;;;;;;;;;4988759;28;20026;-67
2022/01/18 11:17:43;;;;;;;66.18;21.23;;;;;;;;;;4990124;28;20078;-67
2022/01/18 11:20:09;;;;;;;72.05;22.05;;;;;;;;;;4991979;28;20022;-67
2022/01/18 11:22:34;;;;;;;78.20;22.55;;;;;;;;;;4991912;28;20093;-67
2022/01/18 11:25:01;;;;;;;59.92;21.90;;;;;;;;;;4990835;28;20495;-67
2022/01/18 11:27:28;;;;;;;76.75;22.45;;;;;;;;;;4991290;28;20030;-67
2022/01/18 11:29:53;;;;;;;68.43;22.40;;;;;;;;;;4991423;28;20481;-67
2022/01/18 11:32:19;;;;;;;67.93;21.48;;;;;;;;;;4991837;28;20034;-67
2022/01/18 11:35:04;;;;;;;67.45;21.50;;;;;;;;;;4991655;28;20549;-68
2022/01/18 11:37:44;;;;;;;64.70;20.83;;;;;;;;;;4990606;28;20026;-67
2022/01/18 11:40:11;;;;;;;78.78;23.35;;;;;;;;;;4991764;28;20049;-67
2022/01/18 11:42:38;;;;;;;70.10;23.02;;;;;;;;;;4991732;28;20100;-67
2022/01/18 11:45:22;;;;;;;59.88;19.52;;;;;;;;;;4991876;28;20076;-68
2022/01/18 11:47:57;;;;;;;58.28;19.65;;;;;;;;;;4991050;28;20026;-68
2022/01/18 11:50:26;;;;;;;52.78;18.05;;;;;;;;;;4991719;28;20536;-67
2022/01/18 11:53:15;;;;;;;63.67;20.30;;;;;;;;;;4991037;28;20487;-68
2022/01/18 11:55:43;;;;;;;66.68;18.42;;;;;;;;;;4987230;28;20057;-67
2022/01/18 11:58:14;;;;;;;63.33;18.67;;;;;;;;;;4990788;28;20018;-68
2022/01/18 12:00:51;;;;;;;57.92;17.70;;;;;;;;;;4991619;28;20094;-67
2022/01/18 12:03:17;;;;;;;54.35;18.48;;;;;;;;;;4990721;28;20053;-67
2022/01/18 12:05:43;;;;;;;67.63;19.90;;;;;;;;;;4991231;28;20030;-67
2022/01/18 12:08:08;;;;;;;69.07;20.00;;;;;;;;;;4990866;28;20077;-67
2022/01/18 12:10:34;;;;;;;61.83;18.35;;;;;;;;;;4990913;28;20034;-67
2022/01/18 12:13:01;;;;;;;62.88;19.00;;;;;;;;;;4990808;28;20510;-67
2022/01/18 12:15:26;;;;;;;59.30;20.17;;;;;;;;;;4991303;28;20050;-68
2022/01/18 12:17:52;;;;;;;63.72;18.90;;;;;;;;;;4990496;28;20053;-68
2022/01/18 12:20:33;;;;;;;70.20;18.27;;;;;;;;;;4990935;28;20026;-67
2022/01/18 12:22:58;;;;;;;;;;;;;;;;;;4991549;28;20026;-68
2022/01/18 12:25:28;;;;;;;54.58;18.27;;;;;;;;;;4990829;28;19909;-67
2022/01/18 12:27:55;;;;;;;62.00;22.33;;;;;;;;;;4990297;28;20438;-68
2022/01/18 12:31:34;;;;;;;54.53;18.08;;;;;;;;;;4990326;28;20041;-67
2022/01/18 12:33:16;;;;;;;57.90;17.85;;;;;;;;;;4978906;28;20088;-68
2022/01/18 12:35:41;;;;;;;56.78;18.92;;;;;;;;;;4990794;28;20495;-68
2022/01/18 12:38:10;;;;;;;51.00;18.10;;;;;;;;;;4990536;28;20030;-67
2022/01/18 12:40:41;;;;;;;54.80;17.38;;;;;;;;;;4980206;28;20619;-68
2022/01/18 12:45:33;;;;;;;64.97;19.45;;;;;;;;;;4990901;28;20030;-68
2022/01/18 12:48:04;;;;;;;59.20;19.30;;;;;;;;;;4990094;28;20107;-68
2022/01/18 12:50:29;;;;;;;;;;;;;;;;;;4991266;28;20105;-67
2022/01/18 12:52:56;;;;;;;61.17;16.90;;;;;;;;;;4990190;28;20532;-67
2022/01/18 12:55:28;;;;;;;49.83;17.60;;;;;;;;;;4990463;28;20281;-68
2022/01/18 12:57:57;;;;;;;54.65;18.67;;;;;;;;;;4990222;28;20061;-68
2022/01/18 13:00:22;;;;;;;56.30;17.95;;;;;;;;;;4990141;28;20014;-67
2022/01/18 13:02:47;;;;;;;55.83;16.13;;;;;;;;;;4989680;28;20018;-68
2022/01/18 13:05:12;;;;;;;60.10;16.92;;;;;;;;;;4989911;28;20694;-67
2022/01/18 13:07:53;;;;;;;55.07;17.77;;;;;;;;;;5019196;23;20038;-66
2022/01/18 13:10:19;;;;;;;53.80;18.95;;;;;;;;;;5010017;28;20741;-66
2022/01/18 13:12:45;;;;;;;55.83;17.77;;;;;;;;;;5009829;28;20025;-67
2022/01/18 13:15:13;;;;;;;56.35;19.63;;;;;;;;;;5012267;28;20470;-64
2022/01/18 13:23:17;;;;;;;55.72;17.80;;;;;;;;;;5010424;28;20108;-64
2022/01/18 13:25:46;;;;;;;50.50;16.65;;;;;;;;;;5009178;28;20478;-65
2022/01/18 13:28:11;;;;;;;50.30;16.48;;;;;;;;;;5009752;28;20418;-64
2022/01/18 13:30:39;;;;;;;61.23;17.93;;;;;;;;;;5009832;28;20022;-64
2022/01/18 13:33:06;;;;;;;53.47;17.67;;;;;;;;;;5010385;28;20292;-65
2022/01/18 13:35:32;;;;;;;39.92;15.02;;;;;;;;;;5008952;28;20161;-64
2022/01/18 13:37:59;;;;;;;49.72;16.60;;;;;;;;;;5009772;28;20022;-65
2022/01/18 13:40:26;;;;;;;33.33;13.05;;;;;;;;;;5009583;28;20474;-65
2022/01/18 13:43:00;;;;;;;31.70;11.48;;;;;;;;;;5009609;28;20087;-65
2022/01/18 13:45:26;;;;;;;42.75;14.70;;;;;;;;;;5009126;28;20029;-64
2022/01/18 13:48:01;;;;;;;41.63;14.88;;;;;;;;;;5010223;28;20107;-64
2022/01/18 13:50:30;;;;;;;49.72;14.65;;;;;;;;;;5005194;28;20386;-65
2022/01/18 13:53:05;;;;;;;48.22;14.23;;;;;;;;;;5011631;28;20030;-65
2022/01/18 13:55:30;;;;;;;31.55;11.27;;;;;;;;;;5012518;28;20040;-64
2022/01/18 13:57:56;;;;;;;38.70;9.93;;;;;;;;;;5012307;28;20490;-65
2022/01/18 14:00:22;;;;;;;31.75;10.55;;;;;;;;;;5012940;28;20044;-65
2022/01/18 14:02:48;;;;;;;43.58;11.07;;;;;;;;;;5012030;28;20030;-65
2022/01/18 14:05:14;;;;;;;40.97;10.27;;;;;;;;;;5013417;28;20035;-64
2022/01/18 14:07:39;;;;;;;34.28;10.38;;;;;;;;;;5010645;28;20053;-65
2022/01/18 14:10:05;;;;;;;39.88;13.10;;;;;;;;;;5012201;28;20057;-66
2022/01/18 14:12:31;;;;;;;45.17;12.80;;;;;;;;;;5012606;28;20072;-65
2022/01/18 14:14:56;;;;;;;44.67;14.13;;;;;;;;;;5012860;28;20026;-66
2022/01/18 14:17:22;;;;;;;37.60;12.23;;;;;;;;;;5012740;28;20025;-66
2022/01/18 14:19:47;;;;;;;22.55;6.72;;;;;;;;;;5013057;28;20466;-65
2022/01/18 14:22:12;;;;;;;33.20;8.85;;;;;;;;;;5012463;28;20030;-65
2022/01/18 14:24:39;;;;;;;25.25;6.50;;;;;;;;;;5013001;28;20038;-64
2022/01/18 14:27:06;;;;;;;18.67;6.18;;;;;;;;;;5011895;28;20363;-65
2022/01/18 14:29:40;;;;;;;24.25;7.32;;;;;;;;;;5012700;28;20072;-65
2022/01/18 14:32:07;;;;;;;30.83;7.53;;;;;;;;;;5012149;28;20026;-65
2022/01/18 14:34:34;;;;;;;27.85;8.82;;;;;;;;;;5012346;28;20022;-65
2022/01/18 14:36:59;;;;;;;27.02;7.47;;;;;;;;;;5012318;28;20056;-65
2022/01/18 14:39:24;;;;;;;33.28;8.60;;;;;;;;;;5012172;28;20439;-65
2022/01/18 14:41:56;;;;;;;28.67;7.80;;;;;;;;;;5010602;28;20034;-65
2022/01/18 14:44:35;;;;;;;26.70;10.25;;;;;;;;;;5003233;28;20453;-65
2022/01/18 14:49:56;;;;;;;31.25;8.43;;;;;;;;;;5003939;28;20116;-66
2022/01/18 14:52:22;;;;;;;29.58;8.70;;;;;;;;;;5011668;28;20030;-65
2022/01/18 14:54:48;;;;;;;30.80;8.95;;;;;;;;;;5011813;28;20021;-65
2022/01/18 14:57:13;;;;;;;29.35;10.13;;;;;;;;;;5011434;28;20017;-65
2022/01/18 14:59:39;;;;;;;26.83;8.83;;;;;;;;;;5011543;28;20029;-66
2022/01/18 15:02:04;;;;;;;33.85;10.80;;;;;;;;;;5009329;28;20265;-65
2022/01/18 15:04:29;;;;;;;35.40;10.90;;;;;;;;;;5004771;28;20022;-65
2022/01/18 15:06:55;;;;;;;30.27;9.73;;;;;;;;;;5011009;28;20077;-65
2022/01/18 15:09:20;;;;;;;28.33;9.97;;;;;;;;;;5010472;28;20346;-64
2022/01/18 15:11:45;;;;;;;31.67;9.13;;;;;;;;;;5008014;28;20761;-65
2022/01/18 15:14:10;;;;;;;21.60;9.60;;;;;;;;;;5011529;28;20415;-65
2022/01/18 15:16:35;;;;;;;35.30;11.00;;;;;;;;;;5010420;28;20645;-65
2022/01/18 15:19:01;;;;;;;32.30;9.88;;;;;;;;;;5010245;28;20096;-65
2022/01/18 15:21:26;;;;;;;39.85;9.65;;;;;;;;;;5011429;28;20498;-65
2022/01/18 15:23:51;;;;;;;34.03;10.10;;;;;;;;;;5009430;28;20029;-65
2022/01/18 15:26:17;;;;;;;30.27;9.30;;;;;;;;;;5010031;28;20053;-65
2022/01/18 15:28:42;;;;;;;23.55;8.57;;;;;;;;;;5011163;28;20500;-65
2022/01/18 15:31:07;;;;;;;26.52;9.70;;;;;;;;;;5009821;28;20030;-66
2022/01/18 15:33:32;;;;;;;25.43;8.50;;;;;;;;;;5007713;28;20022;-65
2022/01/18 15:35:57;;;;;;;25.43;8.43;;;;;;;;;;5009629;28;20831;-66
2022/01/18 15:38:23;;;;;;;24.73;9.27;;;;;;;;;;5010639;28;20265;-66
2022/01/18 15:40:48;;;;;;;34.92;10.63;;;;;;;;;;5010817;28;20696;-66
2022/01/18 15:43:14;;;;;;;31.40;10.83;;;;;;;;;;5010901;28;20022;-65
2022/01/18 15:45:39;;;;;;;37.83;11.13;;;;;;;;;;5010314;28;20269;-65